aviador You're here:

CYLL Decoded Metar

LLOYDMINSTER in AB, CANADA
Report Time2018-07-19 19:00:00
UTC Time2018-07-19 19:21:34
Flight Rules vfr VFR
Wind320° at 07 kt
W.Decomp.*RWY 30: 7.0 kt HW 0.6 kt RCW
RWY 26: 4.9 kt HW 4.9 kt RCW
W.Rank320° ranks 8
Current wind is below 320° avg. (9.7)
Visibility9999 m
Phenomena:N/A
Clouds:Few 040 Hf
Scattered 250 Hf
Expected CloudBase > 4,400 ft AGL from Temp-Dew spread
CeilingNone
Temp24°C (ISA +13)
Dew Point13°C (50% RH)
AAT22.4°C
QNH1016 hPa
Density Alt3,845 ft
Elevation2,195 ft
Report Wrong Elevation
Raw Report
CYLL 191900Z 32007KT 290V020 15SM FEW040 SCT250 24/13 A3000 RMK
CU2CI1 SLP161 DENSITY ALT 3700FT=

Extra information for CYLL:More info

Metar Taf Metar & Taf Last 4 Metars F.Rules Stats Wind Profile Meteogram Temp Stats Airport Information Weather charts Add Link Nearby VenuesMetar ALERT Operation Metar Decoded Social comments